createdAt,value
2022-08-05T00:00:00.289Z,7.93
2022-08-05T00:02:28.655Z,8.27
2022-08-05T00:04:56.912Z,8.38
2022-08-05T00:07:58.873Z,8.15
2022-08-05T00:10:14.412Z,7.30
2022-08-05T00:12:55.962Z,7.60
2022-08-05T00:15:55.271Z,7.55
2022-08-05T00:18:21.382Z,7.00
2022-08-05T00:20:49.822Z,6.90
2022-08-05T00:23:17.271Z,7.47
2022-08-05T00:26:07.110Z,6.95
2022-08-05T00:28:35.350Z,7.00
2022-08-05T00:31:04.414Z,6.75
2022-08-05T00:34:53.354Z,7.30
2022-08-05T00:37:10.726Z,7.53
2022-08-05T00:39:07.217Z,7.32
2022-08-05T00:41:55.093Z,7.68
2022-08-05T00:44:23.466Z,7.25
2022-08-05T00:47:01.516Z,7.03
2022-08-05T00:49:32.811Z,7.07
2022-08-05T00:52:00.420Z,7.13
2022-08-05T00:54:28.157Z,7.90
2022-08-05T00:56:59.193Z,7.85
2022-08-05T00:59:26.629Z,7.60
2022-08-05T01:02:02.353Z,7.38
2022-08-05T01:04:29.899Z,7.20
2022-08-05T01:06:57.425Z,7.40
2022-08-05T01:09:27.378Z,7.30
2022-08-05T01:12:09.334Z,7.35
2022-08-05T01:14:50.379Z,7.68
2022-08-05T01:17:25.122Z,7.50
2022-08-05T01:20:03.648Z,7.40
2022-08-05T01:22:42.945Z,8.15
2022-08-05T01:25:40.545Z,8.82
2022-08-05T01:28:29.129Z,8.07
2022-08-05T01:31:03.016Z,8.60
2022-08-05T01:33:35.957Z,7.28
2022-08-05T01:36:12.996Z,8.15
2022-08-05T01:38:45.761Z,8.07
2022-08-05T01:41:21.703Z,8.18
2022-08-05T01:43:52.085Z,8.00
2022-08-05T01:46:42.154Z,7.47
2022-08-05T01:49:22.667Z,7.70
2022-08-05T01:51:58.924Z,8.20
2022-08-05T01:54:32.117Z,7.85
2022-08-05T01:58:09.565Z,8.18
2022-08-05T01:59:52.668Z,8.75
2022-08-05T02:05:00.906Z,8.15
2022-08-05T02:07:31.906Z,7.72
2022-08-05T02:10:01.535Z,7.68
2022-08-05T02:12:36.482Z,7.28
2022-08-05T02:15:12.482Z,9.52
2022-08-05T02:18:33.135Z,8.35
2022-08-05T02:20:40.568Z,7.85
2022-08-05T02:23:11.784Z,8.73
2022-08-05T02:25:49.863Z,8.20
2022-08-05T02:28:29.337Z,8.63
2022-08-05T02:31:05.586Z,9.13
2022-08-05T02:33:39.623Z,9.13
2022-08-05T02:36:13.673Z,8.52
2022-08-05T02:38:53.259Z,9.30
2022-08-05T02:41:23.773Z,9.15
2022-08-05T02:44:06.151Z,10.02
2022-08-05T02:46:53.558Z,9.00
2022-08-05T02:49:37.130Z,8.98
2022-08-05T02:52:09.280Z,9.13
2022-08-05T02:54:41.232Z,9.35
2022-08-05T02:58:12.235Z,9.85
2022-08-05T03:00:01.613Z,9.93
2022-08-05T03:02:35.021Z,9.82
2022-08-05T03:05:04.076Z,9.10
2022-08-05T03:07:59.436Z,7.93
2022-08-05T03:10:24.594Z,9.45
2022-08-05T03:12:53.151Z,9.02
2022-08-05T03:15:21.174Z,9.77
2022-08-05T03:17:54.155Z,10.07
2022-08-05T03:20:24.342Z,9.90
2022-08-05T03:22:52.624Z,9.32
2022-08-05T03:25:33.724Z,10.02
2022-08-05T03:28:08.927Z,8.98
2022-08-05T03:30:38.198Z,8.85
2022-08-05T03:33:07.529Z,9.38
2022-08-05T03:35:40.805Z,10.05
2022-08-05T03:38:11.066Z,9.48
2022-08-05T03:40:40.600Z,9.05
2022-08-05T03:43:58.743Z,9.25
2022-08-05T03:45:58.737Z,9.40
2022-08-05T03:48:28.173Z,8.82
2022-08-05T03:52:38.328Z,9.25
2022-08-05T03:55:06.889Z,10.30
2022-08-05T03:56:46.629Z,9.75
2022-08-05T03:59:20.191Z,10.77
2022-08-05T04:01:51.016Z,10.07
2022-08-05T04:04:22.072Z,9.80
2022-08-05T04:06:54.988Z,9.57
2022-08-05T04:09:26.530Z,10.38
2022-08-05T04:11:56.487Z,9.25
2022-08-05T04:14:30.102Z,9.48
2022-08-05T04:17:00.268Z,8.70
2022-08-05T04:19:30.006Z,9.55
2022-08-05T04:22:10.247Z,8.63
2022-08-05T04:24:44.563Z,8.98
2022-08-05T04:27:19.881Z,9.38
2022-08-05T04:30:09.235Z,9.10
2022-08-05T04:32:36.588Z,9.20
2022-08-05T04:35:17.725Z,9.27
2022-08-05T04:38:00.899Z,9.55
2022-08-05T04:40:29.425Z,8.80
2022-08-05T04:42:57.202Z,8.35
2022-08-05T04:45:48.408Z,8.95
2022-08-05T04:48:18.743Z,8.80
2022-08-05T04:51:03.218Z,9.32
2022-08-05T04:53:38.682Z,8.25
2022-08-05T04:56:33.959Z,7.68
2022-08-05T04:58:54.818Z,7.50
2022-08-05T05:02:06.397Z,7.57
2022-08-05T05:04:09.657Z,8.27
2022-08-05T05:06:45.113Z,8.63
2022-08-05T05:09:17.533Z,7.75
2022-08-05T05:11:55.554Z,7.72
2022-08-05T05:14:28.012Z,7.90
2022-08-05T05:17:00.406Z,8.93
2022-08-05T05:19:37.232Z,7.28
2022-08-05T05:22:24.515Z,7.40
2022-08-05T05:24:57.956Z,7.93
2022-08-05T05:27:44.730Z,7.55
2022-08-05T05:30:15.567Z,7.97
2022-08-05T05:33:00.438Z,7.53
2022-08-05T05:35:31.604Z,7.43
2022-08-05T05:38:08.941Z,6.97
2022-08-05T05:40:42.492Z,7.97
2022-08-05T05:43:15.788Z,7.35
2022-08-05T05:45:49.943Z,8.05
2022-08-05T05:48:17.109Z,7.75
2022-08-05T05:50:44.678Z,7.53
2022-08-05T05:53:21.066Z,7.53
2022-08-05T05:55:51.373Z,7.07
2022-08-05T05:58:31.742Z,6.95
2022-08-05T06:01:02.220Z,7.80
2022-08-05T06:04:01.327Z,7.35
2022-08-05T06:06:33.074Z,6.43
2022-08-05T06:09:05.145Z,6.70
2022-08-05T06:11:32.760Z,7.07
2022-08-05T06:14:00.743Z,6.65
2022-08-05T06:16:36.832Z,6.38
2022-08-05T06:19:07.341Z,6.85
2022-08-05T06:21:38.506Z,6.50
2022-08-05T06:24:12.691Z,6.55
2022-08-05T06:26:51.600Z,6.72
2022-08-05T06:29:42.802Z,6.35
2022-08-05T06:32:24.902Z,7.25
2022-08-05T06:34:58.353Z,6.25
2022-08-05T06:37:55.603Z,6.72
2022-08-05T06:40:18.449Z,6.22
2022-08-05T06:42:52.353Z,6.35
2022-08-05T06:45:44.623Z,6.88
2022-08-05T06:48:36.080Z,6.00
2022-08-05T06:50:57.110Z,6.55
2022-08-05T06:53:28.303Z,7.05
2022-08-05T06:55:58.113Z,6.15
2022-08-05T06:58:35.311Z,5.88
2022-08-05T07:03:35.147Z,7.30
2022-08-05T07:06:05.901Z,6.43
2022-08-05T07:08:42.569Z,5.57
2022-08-05T07:11:15.421Z,6.35
2022-08-05T07:13:58.205Z,6.40
2022-08-05T07:18:01.162Z,6.43
2022-08-05T07:19:15.387Z,5.82
2022-08-05T07:22:00.571Z,5.85
2022-08-05T07:24:28.916Z,6.10
2022-08-05T07:26:58.990Z,6.00
2022-08-05T07:30:27.919Z,6.07
2022-08-05T07:32:14.632Z,6.43
2022-08-05T07:34:42.526Z,6.18
2022-08-05T07:37:11.688Z,5.75
2022-08-05T07:40:26.063Z,5.45
2022-08-05T07:42:31.850Z,5.72
2022-08-05T07:45:01.973Z,5.65
2022-08-05T07:47:42.408Z,5.80
2022-08-05T07:50:10.711Z,5.93
2022-08-05T07:52:39.098Z,5.93
2022-08-05T07:55:15.800Z,6.07
2022-08-05T07:58:02.754Z,5.47
2022-08-05T08:00:30.663Z,5.60
2022-08-05T08:03:14.706Z,5.13
2022-08-05T08:05:49.442Z,4.78
2022-08-05T08:08:20.098Z,5.05
2022-08-05T08:10:49.068Z,4.88
2022-08-05T08:13:28.813Z,5.43
2022-08-05T08:16:50.023Z,4.63
2022-08-05T08:18:49.949Z,5.30
2022-08-05T08:21:19.360Z,5.80
2022-08-05T08:24:03.357Z,5.13
2022-08-05T08:26:32.499Z,5.07
2022-08-05T08:29:21.719Z,5.30
2022-08-05T08:31:49.513Z,4.85
2022-08-05T08:34:18.752Z,4.38
2022-08-05T08:36:54.651Z,6.18
2022-08-05T08:39:24.506Z,4.30
2022-08-05T08:41:59.486Z,5.00
2022-08-05T08:45:18.645Z,3.58
2022-08-05T08:48:05.702Z,4.68
2022-08-05T08:50:22.488Z,3.92
2022-08-05T08:53:11.848Z,3.97
2022-08-05T08:56:03.748Z,4.03
2022-08-05T08:58:43.231Z,3.90
2022-08-05T09:01:16.294Z,3.92
2022-08-05T09:03:46.301Z,3.97
2022-08-05T09:06:18.609Z,3.92
2022-08-05T09:08:48.680Z,3.80
2022-08-05T09:11:16.439Z,3.85
2022-08-05T09:14:09.484Z,3.75
2022-08-05T09:16:33.671Z,4.05
2022-08-05T09:19:01.500Z,3.63
2022-08-05T09:22:17.825Z,3.70
2022-08-05T09:24:22.393Z,3.40
2022-08-05T09:26:55.875Z,3.63
2022-08-05T09:29:44.771Z,3.75
2022-08-05T09:32:41.209Z,3.65
2022-08-05T09:35:11.138Z,3.92
2022-08-05T09:38:12.072Z,3.80
2022-08-05T09:40:52.596Z,3.42
2022-08-05T09:43:41.788Z,3.70
2022-08-05T09:46:27.931Z,3.30
2022-08-05T09:49:07.990Z,3.78
2022-08-05T09:51:49.556Z,3.45
2022-08-05T09:54:31.683Z,3.30
2022-08-05T09:57:01.735Z,3.55
2022-08-05T09:59:35.126Z,3.72
2022-08-05T10:02:04.707Z,3.42
2022-08-05T10:04:38.426Z,3.40
2022-08-05T10:07:25.066Z,4.20
2022-08-05T10:10:14.418Z,3.45
2022-08-05T10:12:49.804Z,3.40
2022-08-05T10:15:25.991Z,3.47
2022-08-05T10:18:05.847Z,3.30
2022-08-05T10:20:38.670Z,3.35
2022-08-05T10:23:21.851Z,3.40
2022-08-05T10:25:55.571Z,3.20
2022-08-05T10:28:29.193Z,3.63
2022-08-05T10:32:47.699Z,3.25
2022-08-05T10:33:54.318Z,14.48
2022-08-05T10:36:28.581Z,4.93
2022-08-05T10:39:01.066Z,3.63
2022-08-05T10:41:44.999Z,3.55
2022-08-05T10:44:19.024Z,3.95
2022-08-05T10:46:51.033Z,3.75
2022-08-05T10:49:27.455Z,3.35
2022-08-05T10:52:05.583Z,2.90
2022-08-05T10:54:56.554Z,3.35
2022-08-05T10:57:30.995Z,3.45
2022-08-05T11:00:22.890Z,3.35
2022-08-05T11:03:24.291Z,3.40
2022-08-05T11:06:30.757Z,2.85
2022-08-05T11:09:17.540Z,3.22
2022-08-05T11:11:53.307Z,2.97
2022-08-05T11:14:49.447Z,2.90
2022-08-05T11:18:09.451Z,3.13
2022-08-05T11:20:43.694Z,2.90
2022-08-05T11:23:33.725Z,2.85
2022-08-05T11:26:29.133Z,2.90
2022-08-05T11:29:11.489Z,3.15
2022-08-05T11:31:58.503Z,3.15
2022-08-05T11:34:52.187Z,3.05
2022-08-05T11:38:26.164Z,3.13
2022-08-05T11:41:35.510Z,3.00
2022-08-05T11:44:05.128Z,3.00
2022-08-05T11:46:35.959Z,3.00
2022-08-05T11:49:05.199Z,3.55
2022-08-05T11:51:44.393Z,3.10
2022-08-05T11:54:22.780Z,3.03
2022-08-05T11:57:07.987Z,3.22
2022-08-05T11:59:50.017Z,2.85
2022-08-05T12:05:01.351Z,2.42
2022-08-05T12:08:07.258Z,2.80
2022-08-05T12:10:43.805Z,3.05
2022-08-05T12:13:17.466Z,2.78
2022-08-05T12:15:50.182Z,3.00
2022-08-05T12:18:18.543Z,2.70
2022-08-05T12:20:48.319Z,3.35
2022-08-05T12:23:16.790Z,2.88
2022-08-05T12:25:51.966Z,2.70
2022-08-05T12:28:31.719Z,2.80
2022-08-05T12:31:03.083Z,2.80
2022-08-05T12:33:36.367Z,2.80
2022-08-05T12:36:09.292Z,2.97
2022-08-05T12:38:38.288Z,2.63
2022-08-05T12:41:13.338Z,2.63
2022-08-05T12:43:53.553Z,2.50
2022-08-05T12:46:29.301Z,2.65
2022-08-05T12:48:59.329Z,2.90
2022-08-05T12:52:10.760Z,2.55
2022-08-05T12:54:23.670Z,2.60
2022-08-05T12:56:55.785Z,2.47
2022-08-05T12:59:27.603Z,2.47
2022-08-05T13:02:18.849Z,2.45
2022-08-05T13:04:52.590Z,2.53
2022-08-05T13:07:55.815Z,2.85
2022-08-05T13:10:19.427Z,3.00
2022-08-05T13:12:51.014Z,2.70
2022-08-05T13:15:41.607Z,2.60
2022-08-05T13:18:20.456Z,3.00
2022-08-05T13:20:49.118Z,2.80
2022-08-05T13:23:22.056Z,2.85
2022-08-05T13:25:59.568Z,2.42
2022-08-05T13:28:29.091Z,2.75
2022-08-05T13:30:59.870Z,2.63
2022-08-05T13:34:21.195Z,2.83
2022-08-05T13:36:29.602Z,2.72
2022-08-05T13:38:56.987Z,2.50
2022-08-05T13:41:35.858Z,2.85
2022-08-05T13:44:05.471Z,2.83
2022-08-05T13:46:44.392Z,2.78
2022-08-05T13:49:22.736Z,3.05
2022-08-05T13:51:50.224Z,2.70
2022-08-05T13:54:25.073Z,2.80
2022-08-05T13:56:53.333Z,2.60
2022-08-05T13:59:24.510Z,2.80
2022-08-05T14:01:57.784Z,2.83
2022-08-05T14:04:30.140Z,2.88
2022-08-05T14:07:12.092Z,2.70
2022-08-05T14:09:47.778Z,2.80
2022-08-05T14:12:18.117Z,3.20
2022-08-05T14:14:59.599Z,2.63
2022-08-05T14:17:28.353Z,2.65
2022-08-05T14:20:02.350Z,2.65
2022-08-05T14:22:34.967Z,2.60
2022-08-05T14:25:02.547Z,2.90
2022-08-05T14:27:33.931Z,2.80
2022-08-05T14:30:02.113Z,2.75
2022-08-05T14:32:31.832Z,2.72
2022-08-05T14:35:00.790Z,2.60
2022-08-05T14:37:44.859Z,3.13
2022-08-05T14:40:16.897Z,2.80
2022-08-05T14:42:44.961Z,2.72
2022-08-05T14:45:13.425Z,2.80
2022-08-05T14:48:03.268Z,2.80
2022-08-05T14:50:31.688Z,2.90
2022-08-05T14:52:59.341Z,3.20
2022-08-05T14:55:38.610Z,2.88
2022-08-05T14:58:12.135Z,2.88
2022-08-05T15:00:59.134Z,3.10
2022-08-05T15:03:33.684Z,3.30
2022-08-05T15:06:14.823Z,2.90
2022-08-05T15:08:59.673Z,2.83
2022-08-05T15:11:52.884Z,2.75
2022-08-05T15:14:33.380Z,2.60
2022-08-05T15:17:03.809Z,2.80
2022-08-05T15:19:32.442Z,2.70
2022-08-05T15:22:01.748Z,3.20
2022-08-05T15:24:29.863Z,2.80
2022-08-05T15:26:58.463Z,2.67
2022-08-05T15:29:30.224Z,3.03
2022-08-05T15:34:33.051Z,2.95
2022-08-05T15:37:06.157Z,2.97
2022-08-05T15:40:58.661Z,2.97
2022-08-05T15:42:55.195Z,2.78
2022-08-05T15:45:27.131Z,2.97
2022-08-05T15:48:06.958Z,3.00
2022-08-05T15:50:34.695Z,2.80
2022-08-05T15:53:05.689Z,2.92
2022-08-05T15:56:02.223Z,3.25
2022-08-05T15:58:24.080Z,2.92
2022-08-05T16:01:11.889Z,3.10
2022-08-05T16:03:42.667Z,3.15
2022-08-05T16:06:11.339Z,2.80
2022-08-05T16:08:40.563Z,3.10
2022-08-05T16:11:09.293Z,3.13
2022-08-05T16:13:37.219Z,2.83
2022-08-05T16:16:05.100Z,2.63
2022-08-05T16:18:32.564Z,2.88
2022-08-05T16:21:03.971Z,2.85
2022-08-05T16:23:53.228Z,3.15
2022-08-05T16:26:26.446Z,3.15
2022-08-05T16:28:54.999Z,2.85
2022-08-05T16:31:22.906Z,3.28
2022-08-05T16:33:50.860Z,2.95
2022-08-05T16:36:20.472Z,3.42
2022-08-05T16:38:54.744Z,3.10
2022-08-05T16:42:12.586Z,2.80
2022-08-05T16:44:14.596Z,3.03
2022-08-05T16:46:55.969Z,3.17
2022-08-05T16:49:23.993Z,3.35
2022-08-05T16:51:54.801Z,3.17
2022-08-05T16:54:28.987Z,3.58
2022-08-05T16:57:01.720Z,3.20
2022-08-05T16:59:30.663Z,2.78
2022-08-05T17:01:58.317Z,3.00
2022-08-05T17:04:28.571Z,3.25
2022-08-05T17:07:00.221Z,4.78
2022-08-05T17:09:29.562Z,6.75
2022-08-05T17:11:59.279Z,7.00
2022-08-05T17:14:37.697Z,5.68
2022-08-05T17:17:14.567Z,4.30
2022-08-05T17:19:43.868Z,6.00
2022-08-05T17:22:24.862Z,4.60
2022-08-05T17:24:57.981Z,22.05
2022-08-05T17:27:27.482Z,7.20
2022-08-05T17:30:04.429Z,5.25
2022-08-05T17:32:35.276Z,5.78
2022-08-05T17:35:02.805Z,4.05
2022-08-05T17:37:41.915Z,4.25
2022-08-05T17:40:15.679Z,3.42
2022-08-05T17:42:50.884Z,4.07
2022-08-05T17:45:22.608Z,3.72
2022-08-05T17:50:28.749Z,3.58
2022-08-05T17:52:59.841Z,3.47
2022-08-05T17:55:38.491Z,3.92
2022-08-05T17:58:10.933Z,3.97
2022-08-05T18:00:45.338Z,4.32
2022-08-05T18:03:28.129Z,4.18
2022-08-05T18:06:03.772Z,4.40
2022-08-05T18:08:32.303Z,4.57
2022-08-05T18:11:00.098Z,4.82
2022-08-05T18:13:28.173Z,4.22
2022-08-05T18:16:05.947Z,5.45
2022-08-05T18:18:33.583Z,5.07
2022-08-05T18:21:13.361Z,5.65
2022-08-05T18:23:47.677Z,5.93
2022-08-05T18:26:14.912Z,6.10
2022-08-05T18:28:46.511Z,6.15
2022-08-05T18:31:16.904Z,5.78
2022-08-05T18:33:47.113Z,5.70
2022-08-05T18:36:15.238Z,6.00
2022-08-05T18:38:44.005Z,6.22
2022-08-05T18:41:56.902Z,7.03
2022-08-05T18:44:06.437Z,6.00
2022-08-05T18:46:36.641Z,6.22
2022-08-05T18:49:04.277Z,6.28
2022-08-05T18:52:03.164Z,5.85
2022-08-05T18:54:21.556Z,5.85
2022-08-05T18:56:51.114Z,6.45
2022-08-05T18:59:43.838Z,6.70
2022-08-05T19:02:26.907Z,5.72
2022-08-05T19:05:02.092Z,5.80
2022-08-05T19:07:46.643Z,5.50
2022-08-05T19:10:14.497Z,6.00
2022-08-05T19:12:43.243Z,5.97
2022-08-05T19:15:54.715Z,5.55
2022-08-05T19:18:09.559Z,5.63
2022-08-05T19:20:41.120Z,5.95
2022-08-05T19:24:04.140Z,5.68
2022-08-05T19:26:01.974Z,5.88
2022-08-05T19:28:30.472Z,5.57
2022-08-05T19:30:58.205Z,5.43
2022-08-05T19:33:35.922Z,4.63
2022-08-05T19:36:06.204Z,4.78
2022-08-05T19:38:35.722Z,3.95
2022-08-05T19:41:06.739Z,4.38
2022-08-05T19:44:06.164Z,3.85
2022-08-05T19:46:29.384Z,3.85
2022-08-05T19:49:00.956Z,3.65
2022-08-05T19:52:08.488Z,3.80
2022-08-05T19:54:25.450Z,4.20
2022-08-05T19:56:58.227Z,3.88
2022-08-05T19:59:56.582Z,4.07
2022-08-05T20:02:13.530Z,3.50
2022-08-05T20:04:43.173Z,3.90
2022-08-05T20:07:13.648Z,4.50
2022-08-05T20:09:55.011Z,4.07
2022-08-05T20:12:25.111Z,4.00
2022-08-05T20:14:55.336Z,4.18
2022-08-05T20:17:23.170Z,4.20
2022-08-05T20:19:56.693Z,3.78
2022-08-05T20:22:24.984Z,4.22
2022-08-05T20:24:55.479Z,3.85
2022-08-05T20:27:26.380Z,3.72
2022-08-05T20:29:58.325Z,4.20
2022-08-05T20:32:27.556Z,4.47
2022-08-05T20:34:56.593Z,3.83
2022-08-05T20:38:07.736Z,3.80
2022-08-05T20:40:12.647Z,3.90
2022-08-05T20:42:40.303Z,3.83
2022-08-05T20:45:11.196Z,3.95
2022-08-05T20:47:40.108Z,3.72
2022-08-05T20:50:11.367Z,3.80
2022-08-05T20:57:57.154Z,4.25
2022-08-05T21:00:49.620Z,3.95
2022-08-05T21:03:12.499Z,3.80
2022-08-05T21:05:53.733Z,3.90
2022-08-05T21:08:28.239Z,3.90
2022-08-05T21:11:11.695Z,3.75
2022-08-05T21:13:56.427Z,4.30
2022-08-05T21:16:30.203Z,4.57
2022-08-05T21:19:00.171Z,5.53
2022-08-05T21:21:44.047Z,5.00
2022-08-05T21:24:19.573Z,4.78
2022-08-05T21:26:53.754Z,4.97
2022-08-05T21:29:31.253Z,5.38
2022-08-05T21:32:01.309Z,4.78
2022-08-05T21:34:28.739Z,5.47
2022-08-05T21:37:00.593Z,5.10
2022-08-05T21:39:34.782Z,5.00
2022-08-05T21:42:30.964Z,4.97
2022-08-05T21:44:55.666Z,4.75
2022-08-05T22:00:41.236Z,4.38
2022-08-05T22:03:18.467Z,3.72
2022-08-05T22:06:05.950Z,4.00
2022-08-05T22:08:33.170Z,3.78
2022-08-05T22:11:00.362Z,3.30
2022-08-05T22:14:05.986Z,3.55
2022-08-05T22:16:40.512Z,3.97
2022-08-05T22:19:15.138Z,3.70
2022-08-05T22:21:55.329Z,3.92
2022-08-05T22:24:40.842Z,3.92
2022-08-05T22:27:16.552Z,3.75
2022-08-05T22:29:46.319Z,4.43
2022-08-05T22:32:22.964Z,4.10
2022-08-05T22:34:51.466Z,3.92
2022-08-05T22:37:18.778Z,3.78
2022-08-05T22:39:50.466Z,4.30
2022-08-05T22:42:26.047Z,4.22
2022-08-05T22:44:56.673Z,4.07
2022-08-05T22:47:29.148Z,3.70
2022-08-05T22:50:19.481Z,3.95
2022-08-05T22:52:46.790Z,4.25
2022-08-05T22:55:19.057Z,4.35
2022-08-05T22:57:49.117Z,4.03
2022-08-05T23:00:21.246Z,4.05
2022-08-05T23:02:49.990Z,3.97
2022-08-05T23:05:18.403Z,4.15
2022-08-05T23:07:49.511Z,4.13
2022-08-05T23:10:20.174Z,4.60
2022-08-05T23:12:51.171Z,4.38
2022-08-05T23:15:20.499Z,4.68
2022-08-05T23:18:00.850Z,4.47
2022-08-05T23:20:31.308Z,4.60
2022-08-05T23:22:59.767Z,4.50
2022-08-05T23:25:52.962Z,4.10
2022-08-05T23:28:15.771Z,5.03
2022-08-05T23:30:53.767Z,4.53
2022-08-05T23:34:03.339Z,4.93
2022-08-05T23:36:13.477Z,4.50
2022-08-05T23:38:42.801Z,4.65
2022-08-05T23:41:11.028Z,5.03
2022-08-05T23:44:04.855Z,4.53
2022-08-05T23:46:27.607Z,5.57
2022-08-05T23:49:01.113Z,4.80
2022-08-05T23:51:30.784Z,5.47
2022-08-05T23:54:01.526Z,5.68
2022-08-05T23:56:28.882Z,4.60
2022-08-05T23:58:58.641Z,4.95
